createdAt,value
2018-01-08T00:00:18.796Z,24.98
2018-01-08T00:02:47.026Z,24.00
2018-01-08T00:05:14.495Z,26.45
2018-01-08T00:07:41.988Z,27.40
2018-01-08T00:10:19.239Z,26.75
2018-01-08T00:12:46.705Z,26.27
2018-01-08T00:15:14.195Z,26.58
2018-01-08T00:17:42.422Z,28.38
2018-01-08T00:20:09.887Z,26.60
2018-01-08T00:22:37.355Z,26.00
2018-01-08T00:25:04.829Z,26.00
2018-01-08T00:27:32.290Z,27.00
2018-01-08T00:30:00.532Z,26.80
2018-01-08T00:32:27.990Z,27.23
2018-01-08T00:34:55.459Z,27.30
2018-01-08T00:37:22.947Z,27.55
2018-01-08T00:39:51.222Z,24.87
2018-01-08T00:42:19.459Z,26.87
2018-01-08T00:44:46.946Z,26.25
2018-01-08T00:47:14.403Z,25.40
2018-01-08T00:49:42.648Z,27.05
2018-01-08T00:52:10.121Z,26.30
2018-01-08T00:54:37.586Z,27.20
2018-01-08T00:57:05.065Z,28.00
2018-01-08T00:59:33.299Z,26.92
2018-01-08T01:02:00.779Z,27.17
2018-01-08T01:04:28.246Z,26.62
2018-01-08T01:06:56.483Z,27.25
2018-01-08T01:09:23.954Z,26.42
2018-01-08T01:11:51.431Z,27.17
2018-01-08T01:14:19.676Z,27.50
2018-01-08T01:16:47.143Z,25.85
2018-01-08T01:19:14.602Z,27.25
2018-01-08T01:21:42.091Z,25.23
2018-01-08T01:24:09.570Z,25.12
2018-01-08T01:26:37.807Z,26.05
2018-01-08T01:29:05.288Z,26.85
2018-01-08T01:31:32.771Z,27.30
2018-01-08T01:34:01.032Z,27.40
2018-01-08T01:36:29.279Z,26.33
2018-01-08T01:38:56.755Z,27.92
2018-01-08T01:41:24.227Z,26.92
2018-01-08T01:43:52.459Z,24.45
2018-01-08T01:46:19.922Z,26.10
2018-01-08T01:48:47.382Z,27.77
2018-01-08T01:51:14.856Z,26.73
2018-01-08T01:53:42.320Z,27.87
2018-01-08T01:56:09.793Z,26.27
2018-01-08T01:58:38.039Z,28.30
2018-01-08T02:01:05.515Z,26.40
2018-01-08T02:03:32.986Z,27.58
2018-01-08T02:06:01.220Z,27.05
2018-01-08T02:08:28.679Z,24.98
2018-01-08T02:10:56.148Z,26.48
2018-01-08T02:13:23.615Z,27.70
2018-01-08T02:15:51.085Z,26.23
2018-01-08T02:18:19.335Z,27.33
2018-01-08T02:20:46.811Z,28.25
2018-01-08T02:23:14.274Z,28.15
2018-01-08T02:25:42.519Z,26.27
2018-01-08T02:28:09.984Z,26.37
2018-01-08T02:30:37.490Z,26.20
2018-01-08T02:33:04.953Z,28.33
2018-01-08T02:35:32.518Z,27.30
2018-01-08T02:37:59.989Z,24.17
2018-01-08T02:40:27.492Z,25.33
2018-01-08T02:42:54.957Z,26.55
2018-01-08T02:45:23.203Z,25.98
2018-01-08T02:47:50.672Z,24.67
2018-01-08T02:50:18.139Z,25.73
2018-01-08T02:52:45.605Z,26.40
2018-01-08T02:55:13.078Z,26.65
2018-01-08T02:57:41.312Z,25.52
2018-01-08T03:00:08.771Z,26.65
2018-01-08T03:02:36.304Z,27.17
2018-01-08T03:05:03.780Z,25.70
2018-01-08T03:07:31.256Z,24.20
2018-01-08T03:09:58.716Z,26.08
2018-01-08T03:12:26.197Z,25.67
2018-01-08T03:14:54.428Z,23.62
2018-01-08T03:17:21.902Z,24.30
2018-01-08T03:19:49.363Z,25.27
2018-01-08T03:22:16.882Z,25.73
2018-01-08T03:24:44.347Z,26.52
2018-01-08T03:27:11.827Z,27.55
2018-01-08T03:29:39.316Z,25.35
2018-01-08T03:32:06.807Z,25.12
2018-01-08T03:34:34.283Z,25.73
2018-01-08T03:37:01.765Z,25.75
2018-01-08T03:39:29.250Z,25.75
2018-01-08T03:41:56.723Z,24.77
2018-01-08T03:44:24.950Z,25.77
2018-01-08T03:46:52.447Z,27.27
2018-01-08T03:49:19.908Z,25.95
2018-01-08T03:51:47.400Z,22.73
2018-01-08T03:54:14.881Z,26.83
2018-01-08T03:56:42.365Z,24.15
2018-01-08T03:59:09.942Z,24.83
2018-01-08T04:01:37.488Z,23.67
2018-01-08T04:04:04.960Z,27.05
2018-01-08T04:06:32.431Z,23.55
2018-01-08T04:09:00.667Z,25.05
2018-01-08T04:11:28.148Z,22.02
2018-01-08T04:13:55.619Z,22.95
2018-01-08T04:16:23.111Z,23.95
2018-01-08T04:18:50.564Z,22.60
2018-01-08T04:21:18.068Z,25.83
2018-01-08T04:23:45.544Z,24.58
2018-01-08T04:26:13.015Z,23.92
2018-01-08T04:28:41.256Z,27.08
2018-01-08T04:31:08.768Z,25.25
2018-01-08T04:33:37.003Z,24.80
2018-01-08T04:36:04.479Z,23.08
2018-01-08T04:38:31.991Z,26.37
2018-01-08T04:40:59.455Z,25.30
2018-01-08T04:43:26.975Z,25.85
2018-01-08T04:45:55.219Z,24.48
2018-01-08T04:48:22.704Z,23.87
2018-01-08T04:50:50.931Z,25.10
2018-01-08T04:53:18.415Z,23.67
2018-01-08T04:55:45.881Z,25.25
2018-01-08T04:58:13.361Z,23.98
2018-01-08T05:00:41.611Z,24.50
2018-01-08T05:03:09.080Z,24.10
2018-01-08T05:05:37.331Z,23.62
2018-01-08T05:08:04.903Z,23.87
2018-01-08T05:10:32.371Z,23.95
2018-01-08T05:12:59.839Z,24.08
2018-01-08T05:15:28.075Z,23.65
2018-01-08T05:17:55.551Z,23.95
2018-01-08T05:20:23.031Z,23.98
2018-01-08T05:22:51.272Z,23.42
2018-01-08T05:25:19.615Z,24.42
2018-01-08T05:27:47.077Z,22.15
2018-01-08T05:30:14.583Z,20.52
2018-01-08T05:32:42.063Z,22.80
2018-01-08T05:35:10.296Z,23.33
2018-01-08T05:37:37.768Z,22.87
2018-01-08T05:40:05.227Z,18.58
2018-01-08T05:42:32.708Z,23.65
2018-01-08T05:45:00.184Z,23.38
2018-01-08T05:47:28.437Z,22.40
2018-01-08T05:49:55.919Z,23.12
2018-01-08T05:52:24.181Z,23.35
2018-01-08T05:54:52.414Z,23.23
2018-01-08T05:57:19.884Z,24.75
2018-01-08T05:59:47.462Z,25.05
2018-01-08T06:02:14.958Z,24.02
2018-01-08T06:04:43.183Z,25.00
2018-01-08T06:07:10.662Z,23.48
2018-01-08T06:09:38.143Z,24.70
2018-01-08T06:12:06.383Z,25.12
2018-01-08T06:14:33.845Z,22.95
2018-01-08T06:17:01.328Z,24.63
2018-01-08T06:19:29.602Z,24.30
2018-01-08T06:21:57.860Z,24.35
2018-01-08T06:24:25.320Z,23.95
2018-01-08T06:26:52.783Z,23.90
2018-01-08T06:29:20.264Z,22.90
2018-01-08T06:31:48.516Z,23.15
2018-01-08T06:34:15.976Z,24.23
2018-01-08T06:36:43.459Z,22.27
2018-01-08T06:39:11.775Z,22.67
2018-01-08T06:41:39.253Z,24.30
2018-01-08T06:44:06.740Z,23.80
2018-01-08T06:46:34.963Z,24.75
2018-01-08T06:49:02.447Z,24.92
2018-01-08T06:51:29.907Z,22.95
2018-01-08T06:53:57.375Z,23.95
2018-01-08T06:56:24.839Z,20.73
2018-01-08T06:58:52.367Z,23.58
2018-01-08T07:01:19.847Z,23.25
2018-01-08T07:03:48.851Z,19.55
2018-01-08T07:06:16.303Z,23.80
2018-01-08T07:08:43.776Z,24.00
2018-01-08T07:11:12.011Z,24.15
2018-01-08T07:13:39.487Z,22.60
2018-01-08T07:16:06.967Z,23.45
2018-01-08T07:18:34.463Z,24.45
2018-01-08T07:21:01.931Z,23.52
2018-01-08T07:23:29.411Z,21.95
2018-01-08T07:25:56.892Z,23.35
2018-01-08T07:28:24.392Z,23.70
2018-01-08T07:30:51.861Z,20.95
2018-01-08T07:33:19.347Z,23.08
2018-01-08T07:35:46.836Z,23.58
2018-01-08T07:38:14.315Z,22.75
2018-01-08T07:40:42.551Z,22.50
2018-01-08T07:43:10.031Z,21.80
2018-01-08T07:45:37.498Z,24.08
2018-01-08T07:48:05.731Z,23.20
2018-01-08T07:50:33.199Z,20.60
2018-01-08T07:53:00.668Z,20.67
2018-01-08T07:55:28.158Z,21.33
2018-01-08T07:57:56.399Z,20.27
2018-01-08T08:00:23.864Z,20.17
2018-01-08T08:02:51.331Z,21.25
2018-01-08T08:05:18.801Z,18.90
2018-01-08T08:07:47.036Z,20.75
2018-01-08T08:10:14.500Z,21.90
2018-01-08T08:12:41.982Z,20.12
2018-01-08T08:15:09.454Z,20.20
2018-01-08T08:17:37.718Z,19.33
2018-01-08T08:20:05.190Z,19.85
2018-01-08T08:22:33.434Z,17.83
2018-01-08T08:25:00.910Z,19.37
2018-01-08T08:27:28.376Z,19.37
2018-01-08T08:29:55.847Z,18.20
2018-01-08T08:32:24.081Z,18.42
2018-01-08T08:34:51.563Z,17.00
2018-01-08T08:37:19.031Z,16.52
2018-01-08T08:39:46.502Z,17.77
2018-01-08T08:42:13.991Z,15.88
2018-01-08T08:44:41.463Z,19.25
2018-01-08T08:47:08.932Z,13.98
2018-01-08T08:49:36.472Z,20.33
2018-01-08T08:52:03.963Z,19.98
2018-01-08T08:54:32.280Z,17.77
2018-01-08T08:56:59.758Z,17.30
2018-01-08T08:59:27.257Z,17.58
2018-01-08T09:01:55.200Z,16.48
2018-01-08T09:04:22.672Z,15.15
2018-01-08T09:06:50.142Z,15.10
2018-01-08T09:09:17.660Z,16.25
2018-01-08T09:11:45.115Z,16.48
2018-01-08T09:14:12.587Z,19.20
2018-01-08T09:16:40.088Z,17.50
2018-01-08T09:19:07.585Z,16.70
2018-01-08T09:21:35.367Z,16.00
2018-01-08T09:24:02.844Z,16.60
2018-01-08T09:26:30.311Z,17.05
2018-01-08T09:28:57.784Z,16.75
2018-01-08T09:31:25.247Z,15.60
2018-01-08T09:33:52.855Z,16.10
2018-01-08T09:36:20.565Z,15.63
2018-01-08T09:38:48.040Z,16.98
2018-01-08T09:41:15.548Z,15.68
2018-01-08T09:43:43.056Z,14.93
2018-01-08T09:46:11.308Z,14.98
2018-01-08T09:48:38.883Z,16.67
2018-01-08T09:51:06.342Z,16.70
2018-01-08T09:53:35.348Z,13.55
2018-01-08T09:56:02.817Z,14.57
2018-01-08T09:58:31.051Z,15.00
2018-01-08T10:00:58.547Z,15.75
2018-01-08T10:03:38.754Z,14.07
2018-01-08T10:06:18.254Z,14.60
2018-01-08T10:08:58.332Z,15.65
2018-01-08T10:11:37.711Z,14.87
2018-01-08T10:14:17.410Z,15.40
2018-01-08T10:16:58.847Z,15.52
2018-01-08T10:19:38.135Z,15.70
2018-01-08T10:22:05.615Z,13.13
2018-01-08T10:24:33.091Z,15.75
2018-01-08T10:27:00.551Z,14.98
2018-01-08T10:29:28.269Z,14.60
2018-01-08T10:31:55.812Z,15.10
2018-01-08T10:34:23.331Z,16.00
2018-01-08T10:36:50.843Z,14.80
2018-01-08T10:39:18.306Z,12.00
2018-01-08T10:41:51.402Z,13.82
2018-01-08T10:44:24.936Z,13.52
2018-01-08T10:46:58.122Z,12.98
2018-01-08T10:49:31.455Z,14.25
2018-01-08T10:51:59.196Z,13.73
2018-01-08T10:54:39.571Z,12.85
2018-01-08T10:57:07.881Z,13.23
2018-01-08T10:59:35.359Z,14.85
2018-01-08T11:02:08.437Z,13.95
2018-01-08T11:04:35.895Z,13.25
2018-01-08T11:07:03.367Z,14.07
2018-01-08T11:09:30.875Z,14.00
2018-01-08T11:11:59.282Z,13.73
2018-01-08T11:14:27.409Z,13.82
2018-01-08T11:16:54.917Z,15.23
2018-01-08T11:19:22.416Z,12.85
2018-01-08T11:21:49.879Z,14.13
2018-01-08T11:24:17.353Z,15.05
2018-01-08T11:26:45.778Z,14.93
2018-01-08T11:29:13.275Z,14.57
2018-01-08T11:31:40.774Z,14.02
2018-01-08T11:34:08.325Z,14.30
2018-01-08T11:36:35.789Z,13.50
2018-01-08T11:39:03.263Z,13.55
2018-01-08T11:41:40.835Z,13.93
2018-01-08T11:44:08.308Z,11.75
2018-01-08T11:46:35.775Z,13.48
2018-01-08T11:49:03.253Z,13.62
2018-01-08T11:51:30.711Z,14.20
2018-01-08T11:53:58.211Z,13.32
2018-01-08T11:56:26.510Z,14.02
2018-01-08T11:58:53.981Z,14.50
2018-01-08T12:01:21.461Z,13.82
2018-01-08T12:03:48.967Z,13.15
2018-01-08T12:06:17.191Z,12.10
2018-01-08T12:08:44.820Z,14.63
2018-01-08T12:11:12.299Z,13.75
2018-01-08T12:13:39.767Z,12.70
2018-01-08T12:16:07.245Z,14.38
2018-01-08T12:18:34.726Z,12.30
2018-01-08T12:21:02.976Z,13.93
2018-01-08T12:23:30.478Z,12.85
2018-01-08T12:25:57.961Z,12.37
2018-01-08T12:28:25.447Z,13.35
2018-01-08T12:30:52.922Z,12.63
2018-01-08T12:33:21.163Z,13.13
2018-01-08T12:35:48.655Z,12.45
2018-01-08T12:38:16.122Z,12.63
2018-01-08T12:40:44.357Z,12.25
2018-01-08T12:43:11.839Z,12.40
2018-01-08T12:45:39.300Z,9.45
2018-01-08T12:48:06.770Z,12.90
2018-01-08T12:50:35.370Z,13.20
2018-01-08T12:53:02.843Z,13.18
2018-01-08T12:55:30.315Z,10.68
2018-01-08T12:57:57.786Z,10.65
2018-01-08T13:00:25.286Z,11.85
2018-01-08T13:02:53.761Z,10.80
2018-01-08T13:05:22.329Z,12.02
2018-01-08T13:07:50.299Z,11.57
2018-01-08T13:10:18.567Z,10.30
2018-01-08T13:12:46.112Z,10.48
2018-01-08T13:15:14.387Z,10.35
2018-01-08T13:17:41.853Z,10.98
2018-01-08T13:20:09.319Z,11.23
2018-01-08T13:22:36.884Z,10.80
2018-01-08T13:25:04.382Z,12.00
2018-01-08T13:27:31.837Z,10.75
2018-01-08T13:29:59.307Z,10.82
2018-01-08T13:32:26.782Z,10.55
2018-01-08T13:34:54.257Z,11.12
2018-01-08T13:37:21.799Z,12.13
2018-01-08T13:39:49.478Z,11.00
2018-01-08T13:42:16.935Z,9.63
2018-01-08T13:44:44.407Z,11.02
2018-01-08T13:47:11.916Z,11.30
2018-01-08T13:49:39.399Z,11.77
2018-01-08T13:52:06.854Z,9.60
2018-01-08T13:54:34.336Z,11.57
2018-01-08T13:57:01.822Z,11.27
2018-01-08T13:59:30.063Z,11.35
2018-01-08T14:01:57.559Z,12.65
2018-01-08T14:04:25.835Z,12.07
2018-01-08T14:06:54.103Z,12.63
2018-01-08T14:09:22.337Z,11.10
2018-01-08T14:11:50.112Z,10.73
2018-01-08T14:14:17.634Z,12.13
2018-01-08T14:16:45.099Z,10.07
2018-01-08T14:19:12.571Z,11.23
2018-01-08T14:21:40.028Z,9.80
2018-01-08T14:24:07.530Z,11.27
2018-01-08T14:26:35.804Z,11.48
2018-01-08T14:29:04.035Z,10.75
2018-01-08T14:31:31.511Z,11.73
2018-01-08T14:33:58.971Z,10.63
2018-01-08T14:36:26.458Z,12.25
2018-01-08T14:38:54.682Z,10.50
2018-01-08T14:41:22.531Z,9.65
2018-01-08T14:43:49.990Z,12.73
2018-01-08T14:46:17.479Z,12.18
2018-01-08T14:48:44.939Z,12.20
2018-01-08T14:51:12.413Z,10.35
2018-01-08T14:53:39.897Z,10.18
2018-01-08T14:56:08.131Z,10.40
2018-01-08T14:58:35.591Z,10.65
2018-01-08T15:01:03.067Z,11.23
2018-01-08T15:03:30.532Z,10.50
2018-01-08T15:05:58.034Z,11.73
2018-01-08T15:08:25.498Z,11.15
2018-01-08T15:10:53.581Z,10.93
2018-01-08T15:13:21.090Z,11.55
2018-01-08T15:15:49.322Z,11.55
2018-01-08T15:18:16.821Z,11.38
2018-01-08T15:20:44.281Z,9.82
2018-01-08T15:23:11.744Z,11.07
2018-01-08T15:25:39.978Z,9.68
2018-01-08T15:28:08.657Z,11.88
2018-01-08T15:30:36.549Z,10.52
2018-01-08T15:33:05.794Z,10.68
2018-01-08T15:35:33.392Z,10.25
2018-01-08T15:38:00.881Z,10.15
2018-01-08T15:40:28.590Z,10.52
2018-01-08T15:42:56.598Z,10.60
2018-01-08T15:45:24.620Z,10.93
2018-01-08T15:47:52.108Z,11.98
2018-01-08T15:50:19.605Z,9.10
2018-01-08T15:52:47.141Z,12.05
2018-01-08T15:55:15.765Z,12.27
2018-01-08T15:57:43.279Z,12.10
2018-01-08T16:00:10.802Z,11.43
2018-01-08T16:02:38.251Z,11.80
2018-01-08T16:05:05.727Z,11.75
2018-01-08T16:07:33.205Z,10.60
2018-01-08T16:10:00.673Z,10.30
2018-01-08T16:12:28.131Z,12.65
2018-01-08T16:14:55.839Z,11.15
2018-01-08T16:17:24.237Z,12.57
2018-01-08T16:19:51.892Z,10.25
2018-01-08T16:22:19.352Z,11.25
2018-01-08T16:24:46.829Z,10.85
2018-01-08T16:27:14.295Z,11.02
2018-01-08T16:29:41.775Z,11.32
2018-01-08T16:32:09.231Z,11.15
2018-01-08T16:34:36.700Z,10.45
2018-01-08T16:37:06.294Z,11.20
2018-01-08T16:39:33.814Z,11.93
2018-01-08T16:42:01.328Z,12.63
2018-01-08T16:44:28.805Z,10.00
2018-01-08T16:46:57.032Z,12.70
2018-01-08T16:49:24.549Z,10.40
2018-01-08T16:51:52.020Z,11.73
2018-01-08T16:54:19.558Z,9.90
2018-01-08T16:56:48.134Z,10.98
2018-01-08T16:59:15.704Z,10.23
2018-01-08T17:01:43.259Z,9.00
2018-01-08T17:04:11.583Z,11.43
2018-01-08T17:06:39.101Z,11.73
2018-01-08T17:09:07.318Z,10.52
2018-01-08T17:11:34.795Z,9.20
2018-01-08T17:14:02.267Z,11.45
2018-01-08T17:16:31.752Z,11.27
2018-01-08T17:18:59.249Z,12.37
2018-01-08T17:21:27.547Z,9.93
2018-01-08T17:23:57.188Z,11.23
2018-01-08T17:26:25.848Z,8.30
2018-01-08T17:28:54.301Z,12.30
2018-01-08T17:31:22.654Z,8.88
2018-01-08T17:33:50.455Z,11.52
2018-01-08T17:36:17.967Z,11.95
2018-01-08T17:38:45.483Z,13.13
2018-01-08T17:41:13.096Z,12.18
2018-01-08T17:43:40.623Z,11.88
2018-01-08T17:46:08.091Z,12.63
2018-01-08T17:48:36.472Z,13.93
2018-01-08T17:51:04.106Z,14.10
2018-01-08T17:53:31.577Z,11.73
2018-01-08T17:55:59.031Z,12.43
2018-01-08T17:58:26.601Z,12.43
2018-01-08T18:00:54.116Z,13.95
2018-01-08T18:03:22.391Z,13.62
2018-01-08T18:05:51.476Z,13.68
2018-01-08T18:08:20.023Z,14.10
2018-01-08T18:10:48.030Z,14.48
2018-01-08T18:13:15.511Z,11.57
2018-01-08T18:15:43.030Z,15.07
2018-01-08T18:18:10.505Z,15.07
2018-01-08T18:20:38.739Z,13.98
2018-01-08T18:23:06.229Z,14.57
2018-01-08T18:25:34.493Z,14.32
2018-01-08T18:28:01.986Z,14.02
2018-01-08T18:30:29.445Z,16.05
2018-01-08T18:32:57.119Z,14.75
2018-01-08T18:35:25.158Z,12.30
2018-01-08T18:37:53.458Z,14.98
2018-01-08T18:40:20.931Z,13.70
2018-01-08T18:42:48.573Z,15.27
2018-01-08T18:45:17.487Z,15.43
2018-01-08T18:47:45.108Z,14.60
2018-01-08T18:50:13.343Z,15.25
2018-01-08T18:52:40.859Z,15.32
2018-01-08T18:55:09.147Z,16.45
2018-01-08T18:57:36.609Z,15.77
2018-01-08T19:00:04.140Z,15.45
2018-01-08T19:02:32.414Z,13.38
2018-01-08T19:04:59.917Z,14.05
2018-01-08T19:07:28.109Z,14.25
2018-01-08T19:09:56.446Z,15.25
2018-01-08T19:12:24.717Z,17.05
2018-01-08T19:14:53.531Z,15.10
2018-01-08T19:17:21.002Z,16.92
2018-01-08T19:19:48.471Z,15.40
2018-01-08T19:22:15.982Z,16.02
2018-01-08T19:24:44.215Z,15.70
2018-01-08T19:27:11.732Z,16.10
2018-01-08T19:29:39.900Z,15.10
2018-01-08T19:32:08.758Z,17.37
2018-01-08T19:34:36.570Z,15.93
2018-01-08T19:37:04.082Z,11.52
2018-01-08T19:39:31.610Z,15.73
2018-01-08T19:41:59.129Z,16.75
2018-01-08T19:44:26.638Z,17.10
2018-01-08T19:46:54.157Z,12.60
2018-01-08T19:49:21.666Z,14.48
2018-01-08T19:51:49.136Z,16.33
2018-01-08T19:54:17.417Z,16.10
2018-01-08T19:56:45.449Z,16.73
2018-01-08T19:59:13.715Z,13.80
2018-01-08T20:01:41.278Z,15.48
2018-01-08T20:04:09.607Z,12.88
2018-01-08T20:06:38.289Z,16.70
2018-01-08T20:09:06.919Z,14.52
2018-01-08T20:11:34.558Z,16.08
2018-01-08T20:14:02.088Z,13.93
2018-01-08T20:16:29.564Z,15.77
2018-01-08T20:18:57.861Z,16.15
2018-01-08T20:21:25.514Z,15.00
2018-01-08T20:23:53.827Z,16.60
2018-01-08T20:26:21.354Z,17.52
2018-01-08T20:28:52.054Z,18.05
2018-01-08T20:31:19.918Z,17.00
2018-01-08T20:33:47.609Z,16.23
2018-01-08T20:36:15.149Z,16.70
2018-01-08T20:38:43.530Z,16.08
2018-01-08T20:41:11.832Z,15.40
2018-01-08T20:43:39.454Z,15.20
2018-01-08T20:46:07.042Z,16.30
2018-01-08T20:48:35.407Z,15.73
2018-01-08T20:51:03.803Z,15.52
2018-01-08T20:53:32.085Z,16.02
2018-01-08T20:55:59.610Z,16.08
2018-01-08T20:58:27.659Z,14.57
2018-01-08T21:00:55.474Z,14.65
2018-01-08T21:03:23.745Z,14.18
2018-01-08T21:05:52.389Z,15.10
2018-01-08T21:08:19.906Z,14.75
2018-01-08T21:10:47.366Z,14.52
2018-01-08T21:13:14.894Z,14.18
2018-01-08T21:15:43.174Z,14.90
2018-01-08T21:18:11.479Z,12.80
2018-01-08T21:20:39.007Z,13.43
2018-01-08T21:23:07.345Z,15.25
2018-01-08T21:25:34.910Z,15.13
2018-01-08T21:28:02.428Z,14.02
2018-01-08T21:30:29.952Z,15.73
2018-01-08T21:32:57.470Z,13.32
2018-01-08T21:35:24.996Z,15.98
2018-01-08T21:37:53.291Z,14.00
2018-01-08T21:40:20.798Z,13.85
2018-01-08T21:42:48.351Z,15.63
2018-01-08T21:45:15.910Z,15.30
2018-01-08T21:47:43.428Z,15.60
2018-01-08T21:50:11.023Z,14.82
2018-01-08T21:52:38.544Z,15.95
2018-01-08T21:55:06.073Z,14.87
2018-01-08T21:57:34.356Z,14.57
2018-01-08T22:00:02.711Z,15.95
2018-01-08T22:02:30.235Z,15.85
2018-01-08T22:04:57.748Z,14.45
2018-01-08T22:07:26.100Z,11.30
2018-01-08T22:09:53.688Z,15.90
2018-01-08T22:12:22.088Z,14.27
2018-01-08T22:14:49.665Z,15.05
2018-01-08T22:17:17.196Z,15.65
2018-01-08T22:19:45.928Z,15.02
2018-01-08T22:22:13.724Z,16.12
2018-01-08T22:24:41.332Z,17.37
2018-01-08T22:27:09.329Z,14.13
2018-01-08T22:29:37.056Z,16.23
2018-01-08T22:32:04.586Z,14.87
2018-01-08T22:34:33.047Z,14.57
2018-01-08T22:37:00.593Z,17.05
2018-01-08T22:39:28.375Z,15.52
2018-01-08T22:41:55.914Z,15.55
2018-01-08T22:44:23.450Z,15.32
2018-01-08T22:46:50.977Z,15.45
2018-01-08T22:49:19.321Z,15.27
2018-01-08T22:51:47.310Z,15.68
2018-01-08T22:54:14.861Z,16.05
2018-01-08T22:56:42.670Z,15.18
2018-01-08T22:59:10.199Z,14.25
2018-01-08T23:01:38.485Z,17.00
2018-01-08T23:04:06.947Z,15.90
2018-01-08T23:06:34.768Z,15.00
2018-01-08T23:09:02.469Z,16.25
2018-01-08T23:11:30.833Z,16.08
2018-01-08T23:13:58.639Z,14.85
2018-01-08T23:16:27.176Z,14.45
2018-01-08T23:18:54.920Z,16.40
2018-01-08T23:21:22.779Z,13.90
2018-01-08T23:23:50.292Z,15.20
2018-01-08T23:26:17.875Z,14.77
2018-01-08T23:28:46.246Z,15.55
2018-01-08T23:31:14.555Z,14.07
2018-01-08T23:33:42.569Z,14.70
2018-01-08T23:36:10.183Z,15.23
2018-01-08T23:38:38.085Z,15.57
2018-01-08T23:41:05.655Z,14.85
2018-01-08T23:43:33.379Z,15.90
2018-01-08T23:46:00.859Z,14.40
2018-01-08T23:48:28.414Z,13.80
2018-01-08T23:50:55.891Z,15.15
2018-01-08T23:53:23.401Z,11.65
2018-01-08T23:55:51.189Z,15.13
2018-01-08T23:58:18.735Z,15.02
